Alton, New Hampshire
Current Conditions -  °F | °C
As of 10:55 PM on Tuesday 21 Oct 2014 (Local Time) from KLCI Reporting Station
Overcast Overcast  
Wind Chill: 43°   Ceiling: 1600
Heat Index: 48°   Visibility: 5mi
Dew Point: 43°   Wind: 13mph
Humidity: 82%   Direction: 70°ENE
Pressure: 30.04"   Gusts: NA
Location:  43.45°N, 71.22°W
Report Text: KLCI 220255Z AUTO 07011KT 5SM SCT012 OVC016 09/06 A3004 RMK AO1 52014
Loading
Personal Weather Stations






























Interactive Weather Map
Tropical Storm Tracking
New forecast layout! Learn more

10-Day Weather Forecast

Advertisements
Track Severe Weather on mobile